Time;durP1;ratioP1;P1;durP2;ratioP2;P2;SDS_P1;SDS_P2;PMS_P1;PMS_P2;Temp;Humidity;BMP_temperature;BMP_pressure;BME280_temperature;BME280_humidity;BME280_pressure;Samples;Min_cycle;Max_cycle;Signal;HPM_P1;HPM_P2
2021/07/02 06:44:30;;;;;;;;;57.33;45.67;;;;;21.14;63.53;100614.81;5004592;27;45393;-80
2021/07/02 06:46:56;;;;;;;;;58.75;47.25;;;;;21.34;63.20;100610.84;4986635;28;45527;-75
2021/07/02 06:49:21;;;;;;;;;61.25;48.50;;;;;21.52;62.71;100611.38;4987849;28;45476;-73
2021/07/02 06:51:47;;;;;;;;;57.25;46.50;;;;;21.74;62.10;100606.25;4955344;28;45577;-75
2021/07/02 06:54:12;;;;;;;;;57.00;46.50;;;;;22.02;61.49;100607.78;4981941;28;45613;-74
2021/07/02 06:56:59;;;;;;;;;62.25;48.00;;;;;22.30;61.39;100613.78;4965894;28;45635;-76
2021/07/02 06:59:23;;;;;;;;;56.75;44.50;;;;;22.56;60.42;100604.75;4965826;28;45672;-71
2021/07/02 07:01:48;;;;;;;;;54.25;46.25;;;;;22.78;59.81;100612.81;4949315;28;45652;-75
2021/07/02 07:04:14;;;;;;;;;58.50;45.75;;;;;22.96;59.00;100615.06;4982346;28;45577;-74
2021/07/02 07:06:39;;;;;;;;;55.25;46.25;;;;;23.14;58.50;100613.69;4986421;28;45525;-74
2021/07/02 07:09:04;;;;;;;;;50.75;40.75;;;;;23.30;57.88;100614.19;4985800;28;56299;-72
2021/07/02 07:11:30;;;;;;;;;57.00;47.25;;;;;23.48;57.29;100617.25;5019276;27;45878;-73
2021/07/02 07:13:55;;;;;;;;;56.00;45.75;;;;;23.65;57.12;100614.16;5014305;27;46454;-73
2021/07/02 07:16:21;;;;;;;;;57.00;47.25;;;;;23.86;56.43;100622.28;4980104;27;45358;-77
2021/07/02 07:18:46;;;;;;;;;57.75;46.25;;;;;23.96;55.68;100617.91;4988054;28;45458;-77
2021/07/02 07:21:11;;;;;;;;;54.25;43.25;;;;;24.04;55.11;100620.78;4986864;28;46949;-71
2021/07/02 07:23:37;;;;;;;;;55.00;42.75;;;;;24.08;54.81;100619.59;4986651;28;55116;-74
2021/07/02 07:26:03;;;;;;;;;54.25;44.50;;;;;24.13;54.29;100621.88;4967913;28;50539;-73
2021/07/02 07:28:28;;;;;;;;;50.00;40.50;;;;;24.25;54.71;100617.34;4951314;28;45981;-71
2021/07/02 07:30:54;;;;;;;;;47.50;40.00;;;;;24.45;54.18;100616.59;4996872;27;45858;-71
2021/07/02 07:33:20;;;;;;;;;52.25;42.25;;;;;24.66;53.97;100614.00;5013078;28;45804;-73
2021/07/02 07:35:46;;;;;;;;;47.25;40.00;;;;;24.88;53.33;100623.72;4981083;28;45403;-77
2021/07/02 07:38:11;;;;;;;;;51.25;42.25;;;;;25.08;52.64;100617.59;4967127;28;45413;-72
2021/07/02 07:40:37;;;;;;;;;47.75;39.25;;;;;25.21;51.90;100615.56;4966597;28;45421;-74
2021/07/02 07:43:03;;;;;;;;;50.75;40.75;;;;;25.28;51.83;100618.56;4966443;28;45982;-78
2021/07/02 07:45:28;;;;;;;;;45.75;39.75;;;;;25.37;51.25;100623.09;4968100;28;45410;-77
2021/07/02 07:47:53;;;;;;;;;45.75;39.25;;;;;25.49;51.41;100621.22;4968064;28;54129;-77
2021/07/02 07:50:23;;;;;;;;;49.75;41.00;;;;;25.63;49.88;100628.91;4967096;28;45374;-77
2021/07/02 07:52:58;;;;;;;;;50.75;42.00;;;;;25.56;50.48;100625.88;4966911;28;46290;-71
2021/07/02 07:55:23;;;;;;;;;50.75;40.50;;;;;25.63;50.48;100631.56;4956230;28;45481;-73
2021/07/02 07:57:49;;;;;;;;;57.00;44.75;;;;;25.79;50.04;100642.63;4955071;28;45585;-74
2021/07/02 08:00:15;;;;;;;;;49.75;40.75;;;;;25.97;50.17;100634.81;4953879;28;45466;-72
2021/07/02 08:02:40;;;;;;;;;54.00;41.00;;;;;26.14;49.38;100639.53;4954975;28;46138;-72
2021/07/02 08:05:06;;;;;;;;;43.75;38.00;;;;;26.31;49.01;100639.88;4954678;28;45472;-71
2021/07/02 08:07:38;;;;;;;;;51.50;41.50;;;;;26.48;49.02;100636.56;4948879;28;45348;-75
2021/07/02 08:10:10;;;;;;;;;52.00;42.25;;;;;26.67;48.78;100635.69;4974255;28;45691;-72
2021/07/02 08:12:35;;;;;;;;;45.75;39.50;;;;;26.77;47.96;100640.09;4972137;28;47265;-71
2021/07/02 08:15:01;;;;;;;;;47.75;40.50;;;;;26.77;46.93;100633.88;4972706;28;48127;-73
2021/07/02 08:17:30;;;;;;;;;50.00;41.25;;;;;26.79;47.29;100634.59;4973506;28;45512;-74
2021/07/02 08:19:56;;;;;;;;;51.25;40.75;;;;;26.83;46.20;100632.47;4972645;28;45420;-73
2021/07/02 08:22:23;;;;;;;;;44.25;37.25;;;;;26.86;46.74;100632.19;4956004;28;46051;-73
2021/07/02 08:24:48;;;;;;;;;49.75;40.75;;;;;26.96;46.58;100633.03;4973896;28;45326;-73
2021/07/02 08:27:13;;;;;;;;;40.50;35.50;;;;;26.99;44.89;100632.75;4970268;28;55982;-70
2021/07/02 08:29:39;;;;;;;;;36.25;33.25;;;;;26.93;44.93;100638.69;4957045;28;45505;-71
2021/07/02 08:32:04;;;;;;;;;33.25;31.00;;;;;26.96;44.47;100641.09;4972243;28;46319;-71
2021/07/02 08:34:30;;;;;;;;;41.75;33.50;;;;;26.97;43.94;100645.44;4968981;28;45453;-73
2021/07/02 08:36:55;;;;;;;;;47.00;37.25;;;;;26.87;44.69;100642.75;4937631;28;45397;-71
2021/07/02 08:39:21;;;;;;;;;40.50;35.50;;;;;26.83;44.80;100646.72;4953979;28;45375;-72
2021/07/02 08:41:46;;;;;;;;;50.00;40.75;;;;;26.92;44.82;100640.53;4921077;28;47193;-78
2021/07/02 08:44:12;;;;;;;;;48.25;39.00;;;;;27.07;45.04;100639.13;4971743;28;45703;-74
2021/07/02 08:46:38;;;;;;;;;44.00;36.25;;;;;27.23;44.20;100637.69;4940827;28;45424;-74
2021/07/02 08:49:04;;;;;;;;;41.75;36.00;;;;;27.48;44.11;100631.69;4941502;28;45470;-79
2021/07/02 08:51:31;;;;;;;;;32.00;30.00;;;;;27.75;43.16;100636.28;4958556;28;46141;-73
2021/07/02 08:53:57;;;;;;;;;22.75;22.25;;;;;27.98;41.91;100639.47;4958759;28;45390;-72
2021/07/02 08:56:22;;;;;;;;;27.25;25.75;;;;;28.19;41.39;100631.97;4959965;28;45363;-78
2021/07/02 08:58:48;;;;;;;;;29.50;28.50;;;;;28.44;41.35;100626.94;4957805;28;45569;-75
2021/07/02 09:01:46;;;;;;;;;34.25;31.00;;;;;28.64;41.53;100631.16;4976378;28;46008;-72
2021/07/02 09:04:34;;;;;;;;;26.75;26.00;;;;;28.79;40.28;100616.16;5009540;28;45929;-75
2021/07/02 09:07:05;;;;;;;;;27.75;27.00;;;;;28.93;39.66;100622.88;4976070;28;45447;-71
2021/07/02 09:09:54;;;;;;;;;35.50;26.00;;;;;29.14;39.52;100618.00;4993422;28;45215;-75
2021/07/02 09:12:21;;;;;;;;;22.75;20.75;;;;;29.34;39.40;100620.50;4995345;28;47040;-73
2021/07/02 09:15:06;;;;;;;;;34.25;28.75;;;;;29.61;38.83;100620.34;4974986;28;45406;-72
2021/07/02 09:17:33;;;;;;;;;25.00;22.50;;;;;29.85;39.14;100625.00;4978608;28;45273;-74
2021/07/02 09:20:09;;;;;;;;;22.25;20.50;;;;;30.11;38.70;100625.81;4976264;28;45212;-71
2021/07/02 09:22:53;;;;;;;;;20.00;17.50;;;;;30.42;37.12;100623.38;4993541;27;46031;-71
2021/07/02 09:25:22;;;;;;;;;23.25;18.75;;;;;30.52;36.80;100614.28;4975175;28;45414;-72
2021/07/02 09:27:47;;;;;;;;;18.50;17.25;;;;;30.78;37.06;100611.47;4993268;28;45476;-72
2021/07/02 09:30:15;;;;;;;;;22.50;18.25;;;;;31.08;35.98;100609.97;4974739;28;45489;-74
2021/07/02 09:32:45;;;;;;;;;23.75;21.00;;;;;31.33;36.10;100605.41;4976175;28;48510;-74
2021/07/02 09:35:11;;;;;;;;;33.00;31.50;;;;;31.58;35.43;100609.72;4958732;28;45694;-75
2021/07/02 09:37:40;;;;;;;;;22.25;22.25;;;;;31.61;35.69;100602.13;4993610;28;45574;-77
2021/07/02 09:40:22;;;;;;;;;23.50;23.50;;;;;31.78;34.65;100594.84;4992590;28;45452;-75
2021/07/02 09:43:09;;;;;;;;;23.75;23.75;;;;;32.12;34.62;100599.91;4992941;28;46161;-78
2021/07/02 09:45:52;;;;;;;;;25.25;21.25;;;;;32.47;34.36;100595.81;4975401;28;45523;-74
2021/07/02 09:48:19;;;;;;;;;22.50;21.50;;;;;32.75;33.83;100595.28;4978458;28;45480;-77
2021/07/02 09:50:50;;;;;;;;;25.75;23.75;;;;;32.75;33.82;100590.72;4975490;28;45662;-74
2021/07/02 09:53:17;;;;;;;;;21.00;20.75;;;;;32.78;33.92;100594.94;4993778;28;47379;-75
2021/07/02 09:55:47;;;;;;;;;22.00;20.00;;;;;32.74;33.63;100594.44;4992957;27;45441;-77
2021/07/02 09:58:17;;;;;;;;;21.75;19.75;;;;;32.56;33.41;100595.78;4977113;28;45259;-79
2021/07/02 10:00:43;;;;;;;;;19.00;15.50;;;;;32.33;33.19;100596.63;4994552;28;45511;-78
2021/07/02 10:03:09;;;;;;;;;15.50;14.75;;;;;32.07;33.17;100590.63;4977057;28;45511;-78
2021/07/02 10:05:49;;;;;;;;;19.50;17.00;;;;;31.66;33.11;100596.19;4993315;28;45410;-77
2021/07/02 10:08:16;;;;;;;;;22.50;17.00;;;;;31.33;33.29;100595.44;4993982;28;45378;-81
2021/07/02 10:10:41;;;;;;;;;14.25;14.25;;;;;31.35;33.59;100587.19;4975408;28;45476;-74
2021/07/02 10:13:07;;;;;;;;;21.75;20.75;;;;;31.24;33.60;100589.25;4974729;28;46025;-73
2021/07/02 10:15:33;;;;;;;;;25.50;24.25;;;;;31.26;34.43;100587.22;4992714;28;45405;-74
2021/07/02 10:17:59;;;;;;;;;17.50;17.25;;;;;31.27;34.36;100593.44;4992130;28;45461;-78
2021/07/02 10:20:26;;;;;;;;;21.75;20.75;;;;;31.56;33.69;100584.75;4995032;27;45516;-76
2021/07/02 10:22:51;;;;;;;;;14.00;12.00;;;;;31.92;32.95;100588.69;4961728;28;47231;-74
2021/07/02 10:25:18;;;;;;;;;13.50;13.50;;;;;32.43;32.74;100588.25;4964553;28;45459;-77
2021/07/02 10:27:44;;;;;;;;;20.25;17.00;;;;;32.96;31.97;100587.34;4996372;27;45331;-76
2021/07/02 10:30:10;;;;;;;;;15.50;15.50;;;;;33.10;31.84;100591.09;4978389;28;45268;-75
2021/07/02 10:32:35;;;;;;;;;16.25;16.25;;;;;32.98;31.77;100593.44;4976874;28;46051;-73
2021/07/02 10:35:01;;;;;;;;;25.75;25.75;;;;;32.62;32.34;100589.66;4959862;28;45430;-77
2021/07/02 10:37:26;;;;;;;;;26.75;25.25;;;;;32.28;32.07;100592.75;4959694;28;45450;-74
2021/07/02 10:39:53;;;;;;;;;15.25;13.75;;;;;31.92;32.89;100593.25;4959459;28;45422;-71
2021/07/02 10:42:18;;;;;;;;;15.25;15.25;;;;;31.61;33.46;100598.56;4974552;28;47202;-72
2021/07/02 10:44:53;;;;;;;;;16.50;14.00;;;;;31.27;32.96;100598.84;4957067;28;45488;-73
2021/07/02 10:47:22;;;;;;;;;18.00;17.00;;;;;30.91;33.25;100596.50;4975453;28;45912;-71
2021/07/02 10:49:48;;;;;;;;;16.75;16.75;;;;;30.64;33.40;100594.97;4975148;28;45497;-72
2021/07/02 10:52:24;;;;;;;;;16.75;16.00;;;;;30.36;34.31;100598.94;4971826;28;47417;-72
2021/07/02 10:54:50;;;;;;;;;19.50;16.75;;;;;30.26;34.65;100592.84;4971911;28;45787;-74
2021/07/02 10:57:20;;;;;;;;;19.50;18.00;;;;;30.20;35.08;100590.84;4938875;28;45270;-77
2021/07/02 10:59:49;;;;;;;;;16.75;15.50;;;;;30.14;34.21;100583.38;4955481;28;45411;-73
2021/07/02 11:02:15;;;;;;;;;15.00;14.50;;;;;29.84;35.08;100590.16;4972946;28;46038;-74
2021/07/02 11:04:59;;;;;;;;;19.00;17.25;;;;;29.72;35.20;100587.78;4972722;28;45450;-71
2021/07/02 11:07:25;;;;;;;;;16.75;15.00;;;;;30.86;34.37;100576.44;4971661;28;45481;-73
2021/07/02 11:09:58;;;;;;;;;16.50;16.50;;;;;30.95;33.30;100576.25;4954883;28;45485;-69
2021/07/02 11:12:23;;;;;;;;;12.75;12.75;;;;;30.60;33.57;100582.81;4938017;28;45569;-75
2021/07/02 11:14:51;;;;;;;;;15.50;15.00;;;;;30.33;34.50;100577.69;4972016;28;45302;-72
2021/07/02 11:17:35;;;;;;;;;16.50;16.50;;;;;29.93;35.47;100587.34;4971936;28;45470;-75
2021/07/02 11:22:36;;;;;;;;;18.75;17.25;;;;;29.60;34.70;100578.28;4981229;27;45348;-77
2021/07/02 11:25:20;;;;;;;;;17.75;17.75;;;;;29.63;35.07;100567.19;5040389;27;45394;-76
2021/07/02 11:27:58;;;;;;;;;16.75;15.75;;;;;29.65;35.32;100572.41;4964556;28;45349;-76
2021/07/02 11:30:34;;;;;;;;;20.25;19.25;;;;;29.51;35.29;100557.72;4993707;27;45776;-71
2021/07/02 11:33:00;;;;;;;;;14.75;14.75;;;;;29.50;35.78;100556.88;5026300;27;46144;-74
2021/07/02 11:35:30;;;;;;;;;16.25;15.25;;;;;29.64;35.99;100558.09;4997423;27;45444;-72
2021/07/02 11:38:02;;;;;;;;;17.00;16.75;;;;;29.70;35.05;100556.59;4968744;28;45361;-74
2021/07/02 11:40:29;;;;;;;;;17.50;17.50;;;;;29.66;35.02;100558.78;4975635;28;45554;-69
2021/07/02 11:42:55;;;;;;;;;19.00;16.75;;;;;29.61;34.84;100554.91;4941673;28;45522;-72
2021/07/02 11:45:41;;;;;;;;;15.25;13.25;;;;;29.54;35.07;100545.78;4943008;28;45266;-73
2021/07/02 11:48:27;;;;;;;;;20.50;19.25;;;;;29.58;35.00;100549.84;4960431;28;45447;-73
2021/07/02 11:50:57;;;;;;;;;19.50;17.25;;;;;29.61;35.32;100550.38;4947405;28;45568;-73
2021/07/02 11:53:33;;;;;;;;;15.50;15.00;;;;;29.59;34.74;100556.91;4976155;28;46474;-73
2021/07/02 11:56:18;;;;;;;;;21.25;18.00;;;;;29.34;35.09;100553.22;4942778;28;45184;-76
2021/07/02 11:58:59;;;;;;;;;18.25;17.00;;;;;29.05;35.42;100554.38;4977542;27;45481;-72
2021/07/02 12:01:25;;;;;;;;;15.75;15.25;;;;;28.81;35.69;100556.88;4961418;28;45468;-71
2021/07/02 12:03:57;;;;;;;;;16.75;15.25;;;;;28.58;36.33;100553.81;4959188;28;47340;-73
2021/07/02 12:06:25;;;;;;;;;17.25;17.00;;;;;28.49;36.80;100550.22;4977879;28;46017;-77
2021/07/02 12:09:03;;;;;;;;;18.50;18.50;;;;;28.47;36.30;100548.69;4982939;27;45375;-78
2021/07/02 12:11:32;;;;;;;;;17.50;16.75;;;;;28.46;36.52;100541.63;4995265;28;45295;-79
2021/07/02 12:13:58;;;;;;;;;17.50;15.50;;;;;28.36;36.22;100536.31;4992722;28;45508;-71
2021/07/02 12:16:43;;;;;;;;;15.25;13.00;;;;;28.23;36.62;100538.53;5045913;28;45780;-72
2021/07/02 12:19:15;;;;;;;;;16.25;15.25;;;;;28.13;36.58;100537.75;4975841;28;45496;-72
2021/07/02 12:21:40;;;;;;;;;14.75;13.50;;;;;28.07;36.61;100531.16;4994336;28;45304;-72
2021/07/02 12:24:07;;;;;;;;;19.00;17.00;;;;;28.03;36.94;100539.66;4974667;28;47295;-70
2021/07/02 12:26:34;;;;;;;;;19.75;19.75;;;;;27.93;37.18;100535.19;5045166;28;45454;-73
2021/07/02 12:29:06;;;;;;;;;20.50;19.50;;;;;27.99;37.51;100536.44;4976052;27;45524;-77
2021/07/02 12:31:35;;;;;;;;;17.50;16.25;;;;;28.10;37.42;100535.38;4997473;28;45585;-76
2021/07/02 12:34:01;;;;;;;;;19.25;18.50;;;;;28.21;36.86;100535.16;4976086;28;45465;-75
2021/07/02 12:36:27;;;;;;;;;19.75;19.25;;;;;28.36;37.15;100524.75;4976820;28;45484;-70
2021/07/02 12:39:04;;;;;;;;;22.75;18.25;;;;;28.46;37.02;100526.38;4993268;27;45615;-70
2021/07/02 12:41:38;;;;;;;;;18.25;17.00;;;;;28.53;36.72;100526.56;4976641;27;45405;-72
2021/07/02 12:44:04;;;;;;;;;14.75;13.00;;;;;28.50;36.79;100527.72;4973458;28;45389;-70
2021/07/02 12:46:30;;;;;;;;;15.50;14.75;;;;;28.48;36.63;100529.72;4973706;28;45366;-76
2021/07/02 12:49:17;;;;;;;;;57.25;41.00;;;;;28.43;36.29;100529.38;4955031;28;45988;-76
2021/07/02 12:52:00;;;;;;;;;15.25;14.00;;;;;28.40;36.57;100526.94;4956306;28;45773;-70
2021/07/02 12:57:18;;;;;;;;;17.50;15.00;;;;;28.25;36.78;100517.78;4959907;28;45424;-71
2021/07/02 13:00:07;;;;;;;;;16.75;14.75;;;;;28.20;36.94;100528.94;4973997;28;45686;-72
2021/07/02 13:02:33;;;;;;;;;14.25;14.25;;;;;28.19;36.78;100524.53;4968360;28;45914;-73
2021/07/02 13:05:07;;;;;;;;;18.75;16.00;;;;;28.21;36.57;100514.53;4993952;27;45394;-73
2021/07/02 13:07:46;;;;;;;;;17.00;13.75;;;;;28.28;36.65;100512.94;4993097;28;45468;-76
2021/07/02 13:10:12;;;;;;;;;17.25;13.75;;;;;28.25;36.83;100510.56;4993579;27;45391;-76
2021/07/02 13:12:37;;;;;;;;;13.25;12.00;;;;;28.22;36.24;100518.06;4975625;28;45556;-72
2021/07/02 13:15:08;;;;;;;;;14.25;14.25;;;;;28.06;36.96;100512.50;4975133;28;45348;-70
2021/07/02 13:17:45;;;;;;;;;12.75;12.00;;;;;27.86;36.80;100511.78;4992385;28;45481;-73
2021/07/02 13:20:11;;;;;;;;;14.25;11.75;;;;;27.69;37.37;100511.59;4976137;28;45413;-73
2021/07/02 13:22:36;;;;;;;;;18.50;17.50;;;;;27.62;37.57;100512.31;4942009;28;45418;-75
2021/07/02 13:25:11;;;;;;;;;16.25;15.00;;;;;27.55;37.46;100513.94;4958275;28;45610;-70
2021/07/02 13:27:38;;;;;;;;;13.50;11.75;;;;;27.53;37.91;100510.53;4959119;28;45335;-69
2021/07/02 13:30:13;;;;;;;;;12.75;12.25;;;;;27.47;37.40;100506.59;5044701;28;45414;-72
2021/07/02 13:32:38;;;;;;;;;15.25;14.00;;;;;27.40;38.00;100506.34;4995318;27;45355;-75
2021/07/02 13:35:21;;;;;;;;;14.25;14.25;;;;;27.30;37.90;100508.22;4976863;28;46438;-75
2021/07/02 13:37:54;;;;;;;;;20.00;17.00;;;;;27.25;38.05;100512.34;4959432;28;45978;-78
2021/07/02 13:40:34;;;;;;;;;13.75;13.75;;;;;27.20;38.62;100515.47;4978128;28;45460;-77
2021/07/02 13:43:04;;;;;;;;;10.50;9.75;;;;;27.16;37.86;100508.72;4993337;28;45469;-73
2021/07/02 13:45:30;;;;;;;;;13.00;13.00;;;;;27.10;38.52;100515.50;4994188;28;45484;-77
2021/07/02 13:48:05;;;;;;;;;11.25;11.25;;;;;27.09;38.68;100518.31;4992747;28;45684;-73
2021/07/02 13:50:30;;;;;;;;;13.50;11.75;;;;;27.08;38.15;100505.91;4993999;28;45389;-72
2021/07/02 13:52:56;;;;;;;;;15.00;13.50;;;;;27.14;38.59;100507.19;4973897;28;53049;-75
2021/07/02 13:55:22;;;;;;;;;13.00;11.50;;;;;27.19;38.40;100502.22;4993192;28;55121;-74
2021/07/02 13:57:48;;;;;;;;;15.50;15.50;;;;;27.24;38.54;100500.78;4975250;28;45514;-71
2021/07/02 14:00:14;;;;;;;;;15.75;11.00;;;;;27.38;38.66;100497.63;4975108;27;45372;-69
2021/07/02 14:02:39;;;;;;;;;14.50;13.00;;;;;27.53;38.45;100497.94;4992737;27;45236;-70
2021/07/02 14:05:05;;;;;;;;;16.75;13.50;;;;;27.65;37.70;100491.44;4991856;27;45527;-75
2021/07/02 14:07:31;;;;;;;;;15.25;13.00;;;;;27.76;37.84;100490.38;4974565;28;45326;-76
2021/07/02 14:09:56;;;;;;;;;14.75;13.75;;;;;27.85;37.68;100485.94;4974142;28;45399;-76
2021/07/02 14:12:22;;;;;;;;;14.50;12.00;;;;;27.96;37.44;100486.56;4959251;28;45601;-74
2021/07/02 14:14:47;;;;;;;;;13.00;11.25;;;;;28.03;37.56;100481.44;4974172;28;46651;-72
2021/07/02 14:17:13;;;;;;;;;10.50;10.50;;;;;28.03;36.64;100489.50;4977021;28;45517;-74
2021/07/02 14:19:38;;;;;;;;;13.50;12.50;;;;;28.00;36.94;100487.13;4976113;28;46045;-74
2021/07/02 14:22:04;;;;;;;;;11.00;10.50;;;;;28.04;37.09;100482.28;4977112;28;45436;-81
2021/07/02 14:24:29;;;;;;;;;13.50;13.50;;;;;28.09;36.98;100479.97;4976349;28;46819;-77
2021/07/02 14:26:55;;;;;;;;;12.50;11.50;;;;;28.10;36.97;100477.13;5090256;27;45416;-79
2021/07/02 14:29:20;;;;;;;;;15.25;12.50;;;;;28.11;37.03;100478.81;5076923;27;45443;-70
2021/07/02 14:31:46;;;;;;;;;13.00;12.25;;;;;28.12;36.73;100490.41;5095147;27;45928;-71
2021/07/02 14:34:11;;;;;;;;;17.00;14.00;;;;;28.12;36.73;100487.72;5095351;27;57687;-69
2021/07/02 14:36:36;;;;;;;;;12.50;12.50;;;;;28.11;37.11;100483.34;5094893;27;45499;-71
2021/07/02 14:39:02;;;;;;;;;13.50;12.00;;;;;28.09;37.59;100482.66;5095893;27;45401;-72
2021/07/02 14:41:28;;;;;;;;;12.75;12.50;;;;;28.08;36.35;100481.81;5077130;27;45551;-72
2021/07/02 14:43:53;;;;;;;;;14.00;11.75;;;;;28.05;36.64;100481.28;5077424;27;48954;-70
2021/07/02 14:46:18;;;;;;;;;13.00;10.75;;;;;28.04;36.71;100476.91;5060710;27;45385;-69
2021/07/02 14:48:44;;;;;;;;;18.25;15.50;;;;;28.08;37.26;100478.28;5097998;27;45369;-70
2021/07/02 14:51:11;;;;;;;;;12.25;12.25;;;;;28.09;36.94;100488.03;5095799;27;45262;-73
2021/07/02 14:53:36;;;;;;;;;8.75;8.75;;;;;28.13;36.97;100484.88;5095911;27;45683;-72
2021/07/02 14:56:02;;;;;;;;;8.50;8.00;;;;;28.19;36.64;100483.41;5076094;27;54561;-72
2021/07/02 14:58:28;;;;;;;;;14.25;14.25;;;;;28.25;36.17;100490.91;4997355;27;45537;-70
2021/07/02 15:00:53;;;;;;;;;11.75;11.75;;;;;28.26;36.13;100487.22;4975636;28;45621;-73
2021/07/02 15:03:18;;;;;;;;;12.50;11.50;;;;;28.21;36.52;100481.44;4960489;28;48062;-72
2021/07/02 15:05:44;;;;;;;;;9.75;9.75;;;;;28.17;36.67;100478.19;4962952;28;45438;-74
2021/07/02 15:08:09;;;;;;;;;12.50;11.50;;;;;28.12;36.63;100479.66;4968696;28;45361;-76
2021/07/02 15:10:35;;;;;;;;;10.25;10.25;;;;;28.14;36.30;100481.19;4999374;28;45927;-78
2021/07/02 15:13:00;;;;;;;;;8.75;8.75;;;;;28.15;36.04;100477.50;4980877;28;46090;-76
2021/07/02 15:15:26;;;;;;;;;14.75;13.00;;;;;28.14;36.72;100467.78;4980638;28;45337;-73
2021/07/02 15:17:52;;;;;;;;;11.00;10.25;;;;;28.13;37.22;100470.59;4959516;28;45658;-76
2021/07/02 15:20:20;;;;;;;;;12.75;11.50;;;;;28.11;36.78;100464.56;4977164;28;45481;-70
2021/07/02 15:22:47;;;;;;;;;13.25;12.00;;;;;28.09;37.12;100459.34;4957183;28;46486;-74
2021/07/02 15:25:13;;;;;;;;;12.75;11.50;;;;;28.07;36.71;100468.53;4990157;27;45414;-69
2021/07/02 15:27:38;;;;;;;;;14.75;14.75;;;;;28.00;37.04;100463.81;4977546;28;51651;-70
2021/07/02 15:30:37;;;;;;;;;15.00;14.25;;;;;27.98;37.16;100462.28;4996509;27;46030;-73
2021/07/02 15:33:06;;;;;;;;;11.50;11.50;;;;;27.93;37.12;100457.34;4994936;27;46025;-73
2021/07/02 15:35:32;;;;;;;;;12.00;10.50;;;;;27.88;36.97;100461.47;4961542;28;45393;-73
2021/07/02 15:37:57;;;;;;;;;12.75;12.25;;;;;27.85;36.70;100453.72;4961888;28;45468;-80
2021/07/02 15:40:23;;;;;;;;;12.75;12.50;;;;;27.82;36.85;100456.72;4960640;28;45620;-71
2021/07/02 15:42:48;;;;;;;;;12.75;12.75;;;;;27.70;36.78;100458.78;4977280;28;46348;-70
2021/07/02 15:45:14;;;;;;;;;12.00;12.00;;;;;27.57;37.21;100455.59;4994204;27;45585;-71
2021/07/02 15:47:46;;;;;;;;;10.50;10.50;;;;;27.48;37.19;100451.94;4941513;27;45363;-73
2021/07/02 15:50:11;;;;;;;;;11.75;11.00;;;;;27.44;37.96;100450.56;4953239;27;45388;-70
2021/07/02 15:52:37;;;;;;;;;12.00;10.25;;;;;27.42;38.00;100452.56;4985708;27;45985;-73
2021/07/02 15:55:07;;;;;;;;;10.25;10.25;;;;;27.39;37.77;100456.38;4979843;28;45425;-74
2021/07/02 15:57:33;;;;;;;;;11.50;11.50;;;;;27.38;37.70;100448.50;4963044;28;45521;-74
2021/07/02 15:59:58;;;;;;;;;9.75;9.75;;;;;27.34;38.12;100455.16;4945180;28;45678;-70
2021/07/02 16:02:23;;;;;;;;;14.00;13.00;;;;;27.33;37.73;100445.41;4964913;28;49818;-79
2021/07/02 16:04:49;;;;;;;;;13.50;12.50;;;;;27.30;38.07;100446.53;4975836;28;45508;-71
2021/07/02 16:07:14;;;;;;;;;14.75;13.75;;;;;27.27;37.72;100437.94;4975055;28;45446;-71
2021/07/02 16:09:40;;;;;;;;;12.25;11.75;;;;;27.22;38.52;100442.91;4991179;28;45359;-69
2021/07/02 16:12:05;;;;;;;;;10.25;10.25;;;;;27.18;37.89;100436.16;4961923;28;64596;-74
2021/07/02 16:14:31;;;;;;;;;11.00;9.75;;;;;27.17;37.64;100439.84;4974388;28;45492;-70
2021/07/02 16:16:56;;;;;;;;;13.00;12.00;;;;;27.16;37.97;100438.16;4984171;27;45688;-72
2021/07/02 16:19:22;;;;;;;;;8.25;8.25;;;;;27.16;38.53;100433.63;4995021;28;45445;-74
2021/07/02 16:21:47;;;;;;;;;12.75;11.00;;;;;27.15;38.28;100425.75;4983815;27;45778;-77
2021/07/02 16:24:13;;;;;;;;;15.25;14.00;;;;;27.13;38.31;100414.31;4994280;27;50186;-71
2021/07/02 16:26:38;;;;;;;;;9.50;8.25;;;;;27.12;38.12;100420.69;4976976;28;45472;-71
2021/07/02 16:29:04;;;;;;;;;11.25;11.25;;;;;27.09;38.32;100413.75;4976671;28;46541;-70
2021/07/02 16:31:30;;;;;;;;;10.75;9.75;;;;;27.09;38.21;100411.06;5025871;27;46149;-71
2021/07/02 16:33:56;;;;;;;;;11.75;10.75;;;;;27.07;38.00;100407.69;4967154;28;45901;-70
2021/07/02 16:36:21;;;;;;;;;10.00;9.75;;;;;27.02;38.50;100415.34;5044548;27;45412;-76
2021/07/02 16:38:47;;;;;;;;;8.75;8.00;;;;;26.95;37.71;100403.50;5034228;28;45454;-76
2021/07/02 16:41:13;;;;;;;;;13.50;12.00;;;;;26.86;37.68;100405.22;5063746;27;46322;-76
2021/07/02 16:43:39;;;;;;;;;14.25;13.00;;;;;26.81;38.35;100410.19;4974956;27;46628;-81
2021/07/02 16:46:04;;;;;;;;;11.00;9.25;;;;;26.75;38.09;100400.91;4989027;27;45696;-73
2021/07/02 16:48:31;;;;;;;;;13.00;11.25;;;;;26.72;38.33;100400.34;4977652;28;45397;-75
2021/07/02 16:50:57;;;;;;;;;13.50;12.75;;;;;26.70;38.99;100399.66;5038037;27;47603;-81
2021/07/02 16:53:22;;;;;;;;;11.25;11.25;;;;;26.68;38.82;100401.63;5080086;27;45578;-76
2021/07/02 16:55:47;;;;;;;;;11.75;8.25;;;;;26.65;38.70;100397.38;5096776;27;45398;-77
2021/07/02 16:58:13;;;;;;;;;9.75;9.75;;;;;26.65;38.38;100392.03;5098020;27;45449;-71
2021/07/02 17:00:38;;;;;;;;;12.75;12.75;;;;;26.64;38.51;100394.84;5050965;28;46765;-74
2021/07/02 17:03:04;;;;;;;;;15.50;13.75;;;;;26.64;38.96;100392.19;4990331;27;45449;-71
2021/07/02 17:05:29;;;;;;;;;9.25;9.25;;;;;26.64;38.34;100397.53;4957646;28;45534;-70
2021/07/02 17:07:56;;;;;;;;;9.25;9.25;;;;;26.63;38.55;100390.50;4993534;28;45513;-71
2021/07/02 17:10:21;;;;;;;;;19.50;18.50;;;;;26.61;38.66;100396.00;4947074;28;45928;-74
2021/07/02 17:12:47;;;;;;;;;11.00;9.75;;;;;26.60;38.83;100393.47;4957995;28;56856;-73
2021/07/02 17:15:12;;;;;;;;;9.50;8.50;;;;;26.55;39.35;100393.91;4992563;27;55376;-77
2021/07/02 17:17:38;;;;;;;;;13.25;12.25;;;;;26.51;39.50;100397.88;5052837;27;45526;-71
2021/07/02 17:20:05;;;;;;;;;14.75;13.00;;;;;26.48;39.86;100395.50;5096252;27;45411;-71
2021/07/02 17:22:30;;;;;;;;;10.50;10.50;;;;;26.45;39.89;100393.06;5078412;27;45342;-70
2021/07/02 17:25:02;;;;;;;;;11.75;11.75;;;;;26.42;40.04;100391.53;5043857;27;45991;-75
2021/07/02 17:27:27;;;;;;;;;13.00;13.00;;;;;26.41;39.78;100394.34;5042737;27;45429;-70
2021/07/02 17:29:52;;;;;;;;;15.00;12.00;;;;;26.39;39.37;100382.94;4970704;28;56533;-69
2021/07/02 17:32:18;;;;;;;;;13.75;11.25;;;;;26.37;39.66;100391.13;4975781;28;52032;-80
2021/07/02 17:34:43;;;;;;;;;14.75;12.50;;;;;26.33;40.18;100387.03;4959075;28;45515;-70
2021/07/02 17:37:09;;;;;;;;;10.75;10.25;;;;;26.30;39.68;100390.00;4960643;28;45247;-73
2021/07/02 17:39:34;;;;;;;;;14.00;14.00;;;;;26.29;39.82;100390.13;4975424;28;46554;-79
2021/07/02 17:42:00;;;;;;;;;12.50;11.50;;;;;26.29;39.95;100390.97;4962396;28;45304;-79
2021/07/02 17:44:25;;;;;;;;;12.50;12.50;;;;;26.30;40.25;100387.31;4990706;28;45366;-78
2021/07/02 17:46:51;;;;;;;;;14.75;14.75;;;;;26.28;40.51;100389.28;4975123;28;45579;-73
2021/07/02 17:49:16;;;;;;;;;13.00;11.25;;;;;26.27;40.41;100397.47;4986226;27;48076;-72
2021/07/02 17:51:42;;;;;;;;;12.00;12.00;;;;;26.24;40.56;100395.06;5096033;27;45387;-78
2021/07/02 17:54:07;;;;;;;;;13.25;11.00;;;;;26.21;40.72;100390.84;5096429;27;45460;-71
2021/07/02 17:56:32;;;;;;;;;14.75;12.75;;;;;26.20;40.60;100389.16;5017992;28;45487;-70
2021/07/02 17:59:01;;;;;;;;;12.00;10.00;;;;;26.18;40.42;100389.28;4955190;28;47189;-70
2021/07/02 18:01:26;;;;;;;;;12.25;10.25;;;;;26.17;40.68;100387.59;4971692;28;45547;-74
2021/07/02 18:03:53;;;;;;;;;13.75;12.50;;;;;26.14;40.96;100390.56;4954996;28;45434;-75